sensor_id;sensor_type;location;lat;lon;timestamp;temperature;humidity
17565;DHT22;62994;52.126;5.596;2023-02-28T00:00:27;3.70;99.90
17565;DHT22;62994;52.126;5.596;2023-02-28T00:02:54;3.60;99.90
17565;DHT22;62994;52.126;5.596;2023-02-28T00:05:24;3.70;99.90
17565;DHT22;62994;52.126;5.596;2023-02-28T00:07:56;3.60;99.90
17565;DHT22;62994;52.126;5.596;2023-02-28T00:10:30;3.60;99.90
17565;DHT22;62994;52.126;5.596;2023-02-28T00:13:08;3.60;99.90
17565;DHT22;62994;52.126;5.596;2023-02-28T00:15:38;3.60;99.90
17565;DHT22;62994;52.126;5.596;2023-02-28T00:18:05;3.60;99.90
17565;DHT22;62994;52.126;5.596;2023-02-28T00:20:40;3.60;99.90
17565;DHT22;62994;52.126;5.596;2023-02-28T00:23:15;3.60;99.90
17565;DHT22;62994;52.126;5.596;2023-02-28T00:25:43;3.60;99.90
17565;DHT22;62994;52.126;5.596;2023-02-28T00:28:11;3.60;99.90
17565;DHT22;62994;52.126;5.596;2023-02-28T00:30:38;3.60;99.90
17565;DHT22;62994;52.126;5.596;2023-02-28T00:33:06;3.60;99.90
17565;DHT22;62994;52.126;5.596;2023-02-28T00:35:38;3.60;99.90
17565;DHT22;62994;52.126;5.596;2023-02-28T00:38:06;3.60;99.90
17565;DHT22;62994;52.126;5.596;2023-02-28T00:40:35;3.60;99.90
17565;DHT22;62994;52.126;5.596;2023-02-28T00:43:03;3.70;99.90
17565;DHT22;62994;52.126;5.596;2023-02-28T00:45:36;3.70;99.90
17565;DHT22;62994;52.126;5.596;2023-02-28T00:48:09;3.60;99.90
17565;DHT22;62994;52.126;5.596;2023-02-28T00:50:36;3.60;99.90
17565;DHT22;62994;52.126;5.596;2023-02-28T00:53:05;3.60;99.90
17565;DHT22;62994;52.126;5.596;2023-02-28T00:55:37;3.70;99.90
17565;DHT22;62994;52.126;5.596;2023-02-28T00:58:08;3.70;99.90
17565;DHT22;62994;52.126;5.596;2023-02-28T01:00:38;3.70;99.90
17565;DHT22;62994;52.126;5.596;2023-02-28T01:03:08;3.70;99.90
17565;DHT22;62994;52.126;5.596;2023-02-28T01:05:35;3.80;99.90
17565;DHT22;62994;52.126;5.596;2023-02-28T01:08:03;3.80;99.90
17565;DHT22;62994;52.126;5.596;2023-02-28T01:10:32;3.80;99.90
17565;DHT22;62994;52.126;5.596;2023-02-28T01:12:59;3.80;99.90
17565;DHT22;62994;52.126;5.596;2023-02-28T01:15:27;3.90;99.90
17565;DHT22;62994;52.126;5.596;2023-02-28T01:18:00;3.90;99.90
17565;DHT22;62994;52.126;5.596;2023-02-28T01:20:29;3.80;99.90
17565;DHT22;62994;52.126;5.596;2023-02-28T01:23:01;3.80;99.90
17565;DHT22;62994;52.126;5.596;2023-02-28T01:25:31;3.90;99.90
17565;DHT22;62994;52.126;5.596;2023-02-28T01:28:00;3.90;99.90
17565;DHT22;62994;52.126;5.596;2023-02-28T01:30:29;3.90;99.90
17565;DHT22;62994;52.126;5.596;2023-02-28T01:33:00;3.80;99.90
17565;DHT22;62994;52.126;5.596;2023-02-28T01:35:32;3.90;99.90
17565;DHT22;62994;52.126;5.596;2023-02-28T01:38:01;3.90;99.90
17565;DHT22;62994;52.126;5.596;2023-02-28T01:40:28;3.90;99.90
17565;DHT22;62994;52.126;5.596;2023-02-28T01:42:55;3.90;99.90
17565;DHT22;62994;52.126;5.596;2023-02-28T01:45:27;3.90;99.90
17565;DHT22;62994;52.126;5.596;2023-02-28T01:48:03;3.90;99.90
17565;DHT22;62994;52.126;5.596;2023-02-28T01:50:36;3.90;99.90
17565;DHT22;62994;52.126;5.596;2023-02-28T01:53:14;3.90;99.90
17565;DHT22;62994;52.126;5.596;2023-02-28T01:55:52;3.90;99.90
17565;DHT22;62994;52.126;5.596;2023-02-28T01:58:23;3.90;99.90
17565;DHT22;62994;52.126;5.596;2023-02-28T02:00:58;4.00;99.90
17565;DHT22;62994;52.126;5.596;2023-02-28T02:03:29;4.00;99.90
17565;DHT22;62994;52.126;5.596;2023-02-28T02:05:59;4.00;99.90
17565;DHT22;62994;52.126;5.596;2023-02-28T02:08:28;4.00;99.90
17565;DHT22;62994;52.126;5.596;2023-02-28T02:10:57;4.00;99.90
17565;DHT22;62994;52.126;5.596;2023-02-28T02:13:38;4.10;99.90
17565;DHT22;62994;52.126;5.596;2023-02-28T02:16:18;4.00;99.90
17565;DHT22;62994;52.126;5.596;2023-02-28T02:18:53;4.10;99.90
17565;DHT22;62994;52.126;5.596;2023-02-28T02:22:02;4.10;99.90
17565;DHT22;62994;52.126;5.596;2023-02-28T02:25:06;4.10;99.90
17565;DHT22;62994;52.126;5.596;2023-02-28T02:28:05;4.10;99.90
17565;DHT22;62994;52.126;5.596;2023-02-28T02:37:03;4.10;99.90
17565;DHT22;62994;52.126;5.596;2023-02-28T02:39:40;4.10;99.90
17565;DHT22;62994;52.126;5.596;2023-02-28T02:42:16;4.10;99.90
17565;DHT22;62994;52.126;5.596;2023-02-28T02:44:52;4.20;99.90
17565;DHT22;62994;52.126;5.596;2023-02-28T02:47:24;4.20;99.90
17565;DHT22;62994;52.126;5.596;2023-02-28T02:49:56;4.20;99.90
17565;DHT22;62994;52.126;5.596;2023-02-28T02:52:33;4.20;99.90
17565;DHT22;62994;52.126;5.596;2023-02-28T02:55:02;4.20;99.90
17565;DHT22;62994;52.126;5.596;2023-02-28T02:57:33;4.20;99.90
17565;DHT22;62994;52.126;5.596;2023-02-28T03:00:06;4.20;99.90
17565;DHT22;62994;52.126;5.596;2023-02-28T03:02:38;4.20;99.90
17565;DHT22;62994;52.126;5.596;2023-02-28T03:05:14;4.20;99.90
17565;DHT22;62994;52.126;5.596;2023-02-28T03:07:42;4.20;99.90
17565;DHT22;62994;52.126;5.596;2023-02-28T03:10:36;4.20;99.90
17565;DHT22;62994;52.126;5.596;2023-02-28T03:13:37;4.20;99.90
17565;DHT22;62994;52.126;5.596;2023-02-28T03:19:23;4.20;99.90
17565;DHT22;62994;52.126;5.596;2023-02-28T03:22:11;4.20;99.90
17565;DHT22;62994;52.126;5.596;2023-02-28T03:24:47;4.20;99.90
17565;DHT22;62994;52.126;5.596;2023-02-28T03:27:23;4.10;99.90
17565;DHT22;62994;52.126;5.596;2023-02-28T03:29:59;4.10;99.90
17565;DHT22;62994;52.126;5.596;2023-02-28T03:32:38;4.10;99.90
17565;DHT22;62994;52.126;5.596;2023-02-28T03:35:09;4.10;99.90
17565;DHT22;62994;52.126;5.596;2023-02-28T03:37:45;4.10;99.90
17565;DHT22;62994;52.126;5.596;2023-02-28T03:40:18;4.10;99.90
17565;DHT22;62994;52.126;5.596;2023-02-28T03:42:56;4.10;99.90
17565;DHT22;62994;52.126;5.596;2023-02-28T03:45:28;4.10;99.90
17565;DHT22;62994;52.126;5.596;2023-02-28T03:48:04;4.00;99.90
17565;DHT22;62994;52.126;5.596;2023-02-28T03:50:36;4.00;99.90
17565;DHT22;62994;52.126;5.596;2023-02-28T03:53:08;4.00;99.90
17565;DHT22;62994;52.126;5.596;2023-02-28T03:55:43;4.00;99.90
17565;DHT22;62994;52.126;5.596;2023-02-28T03:58:15;3.90;99.90
17565;DHT22;62994;52.126;5.596;2023-02-28T04:00:46;3.90;99.90
17565;DHT22;62994;52.126;5.596;2023-02-28T04:03:16;3.90;99.90
17565;DHT22;62994;52.126;5.596;2023-02-28T04:05:50;3.90;99.90
17565;DHT22;62994;52.126;5.596;2023-02-28T04:08:22;3.80;99.90
17565;DHT22;62994;52.126;5.596;2023-02-28T04:10:59;3.80;99.90
17565;DHT22;62994;52.126;5.596;2023-02-28T04:13:34;3.80;99.90
17565;DHT22;62994;52.126;5.596;2023-02-28T04:16:02;3.80;99.90
17565;DHT22;62994;52.126;5.596;2023-02-28T04:18:37;3.80;99.90
17565;DHT22;62994;52.126;5.596;2023-02-28T04:21:12;3.80;99.90
17565;DHT22;62994;52.126;5.596;2023-02-28T04:23:43;3.80;99.90
17565;DHT22;62994;52.126;5.596;2023-02-28T04:26:10;3.80;99.90
17565;DHT22;62994;52.126;5.596;2023-02-28T04:28:45;3.80;99.90
17565;DHT22;62994;52.126;5.596;2023-02-28T04:31:15;3.80;99.90
17565;DHT22;62994;52.126;5.596;2023-02-28T04:33:48;3.90;99.90
17565;DHT22;62994;52.126;5.596;2023-02-28T04:36:15;3.90;99.90
17565;DHT22;62994;52.126;5.596;2023-02-28T04:38:51;3.90;99.90
17565;DHT22;62994;52.126;5.596;2023-02-28T04:41:19;3.80;99.90
17565;DHT22;62994;52.126;5.596;2023-02-28T04:43:53;3.80;99.90
17565;DHT22;62994;52.126;5.596;2023-02-28T04:46:22;3.70;99.90
17565;DHT22;62994;52.126;5.596;2023-02-28T04:48:49;3.70;99.90
17565;DHT22;62994;52.126;5.596;2023-02-28T04:51:18;3.70;99.90
17565;DHT22;62994;52.126;5.596;2023-02-28T04:53:53;3.80;99.90
17565;DHT22;62994;52.126;5.596;2023-02-28T04:56:21;3.80;99.90
17565;DHT22;62994;52.126;5.596;2023-02-28T04:58:50;3.70;99.90
17565;DHT22;62994;52.126;5.596;2023-02-28T05:01:23;3.80;99.90
17565;DHT22;62994;52.126;5.596;2023-02-28T05:03:57;3.70;99.90
17565;DHT22;62994;52.126;5.596;2023-02-28T05:06:30;3.80;99.90
17565;DHT22;62994;52.126;5.596;2023-02-28T05:08:59;3.80;99.90
17565;DHT22;62994;52.126;5.596;2023-02-28T05:11:28;3.80;99.90
17565;DHT22;62994;52.126;5.596;2023-02-28T05:14:00;3.80;99.90
17565;DHT22;62994;52.126;5.596;2023-02-28T05:16:33;3.80;99.90
17565;DHT22;62994;52.126;5.596;2023-02-28T05:19:00;3.80;99.90
17565;DHT22;62994;52.126;5.596;2023-02-28T05:21:29;3.80;99.90
17565;DHT22;62994;52.126;5.596;2023-02-28T05:24:01;3.80;99.90
17565;DHT22;62994;52.126;5.596;2023-02-28T05:26:34;3.90;99.90
17565;DHT22;62994;52.126;5.596;2023-02-28T05:29:01;3.90;99.90
17565;DHT22;62994;52.126;5.596;2023-02-28T05:31:29;3.90;99.90
17565;DHT22;62994;52.126;5.596;2023-02-28T05:34:01;4.00;99.90
17565;DHT22;62994;52.126;5.596;2023-02-28T05:36:30;4.00;99.90
17565;DHT22;62994;52.126;5.596;2023-02-28T05:39:06;4.00;99.90
17565;DHT22;62994;52.126;5.596;2023-02-28T05:41:39;4.00;99.90
17565;DHT22;62994;52.126;5.596;2023-02-28T05:44:07;4.00;99.90
17565;DHT22;62994;52.126;5.596;2023-02-28T05:46:34;4.00;99.90
17565;DHT22;62994;52.126;5.596;2023-02-28T05:49:03;4.00;99.90
17565;DHT22;62994;52.126;5.596;2023-02-28T05:51:35;4.00;99.90
17565;DHT22;62994;52.126;5.596;2023-02-28T05:54:11;3.90;99.90
17565;DHT22;62994;52.126;5.596;2023-02-28T05:56:42;4.00;99.90
17565;DHT22;62994;52.126;5.596;2023-02-28T05:59:11;4.00;99.90
17565;DHT22;62994;52.126;5.596;2023-02-28T06:01:40;4.00;99.90
17565;DHT22;62994;52.126;5.596;2023-02-28T06:04:09;4.00;99.90
17565;DHT22;62994;52.126;5.596;2023-02-28T06:06:41;4.10;99.90
17565;DHT22;62994;52.126;5.596;2023-02-28T06:09:09;4.10;99.90
17565;DHT22;62994;52.126;5.596;2023-02-28T06:11:37;4.00;99.90
17565;DHT22;62994;52.126;5.596;2023-02-28T06:14:07;4.00;99.90
17565;DHT22;62994;52.126;5.596;2023-02-28T06:16:43;3.90;99.90
17565;DHT22;62994;52.126;5.596;2023-02-28T06:19:13;4.00;99.90
17565;DHT22;62994;52.126;5.596;2023-02-28T06:21:45;3.90;99.90
17565;DHT22;62994;52.126;5.596;2023-02-28T06:24:26;4.00;99.90
17565;DHT22;62994;52.126;5.596;2023-02-28T06:26:56;4.00;99.90
17565;DHT22;62994;52.126;5.596;2023-02-28T06:29:30;4.00;99.90
17565;DHT22;62994;52.126;5.596;2023-02-28T06:31:58;3.90;99.90
17565;DHT22;62994;52.126;5.596;2023-02-28T06:34:28;4.00;99.90
17565;DHT22;62994;52.126;5.596;2023-02-28T06:36:59;4.00;99.90
17565;DHT22;62994;52.126;5.596;2023-02-28T06:39:31;4.00;99.90
17565;DHT22;62994;52.126;5.596;2023-02-28T06:41:58;4.00;99.90
17565;DHT22;62994;52.126;5.596;2023-02-28T06:44:28;4.00;99.90
17565;DHT22;62994;52.126;5.596;2023-02-28T06:47:01;4.00;99.90
17565;DHT22;62994;52.126;5.596;2023-02-28T06:49:29;4.00;99.90
17565;DHT22;62994;52.126;5.596;2023-02-28T06:51:58;4.10;99.90
17565;DHT22;62994;52.126;5.596;2023-02-28T06:54:29;4.10;99.90
17565;DHT22;62994;52.126;5.596;2023-02-28T06:57:00;4.10;99.90
17565;DHT22;62994;52.126;5.596;2023-02-28T06:59:30;4.10;99.90
17565;DHT22;62994;52.126;5.596;2023-02-28T07:01:57;4.10;99.90
17565;DHT22;62994;52.126;5.596;2023-02-28T07:04:25;4.20;99.90
17565;DHT22;62994;52.126;5.596;2023-02-28T07:06:59;4.40;99.90
17565;DHT22;62994;52.126;5.596;2023-02-28T07:09:29;4.40;99.90
17565;DHT22;62994;52.126;5.596;2023-02-28T07:11:56;4.30;99.90
17565;DHT22;62994;52.126;5.596;2023-02-28T07:14:27;4.30;99.90
17565;DHT22;62994;52.126;5.596;2023-02-28T07:16:54;4.30;99.90
17565;DHT22;62994;52.126;5.596;2023-02-28T07:19:25;4.30;99.90
17565;DHT22;62994;52.126;5.596;2023-02-28T07:21:54;4.30;99.90
17565;DHT22;62994;52.126;5.596;2023-02-28T07:24:22;4.30;99.90
17565;DHT22;62994;52.126;5.596;2023-02-28T07:26:53;4.30;99.90
17565;DHT22;62994;52.126;5.596;2023-02-28T07:29:23;4.20;99.90
17565;DHT22;62994;52.126;5.596;2023-02-28T07:31:57;4.10;99.90
17565;DHT22;62994;52.126;5.596;2023-02-28T07:34:29;4.10;99.90
17565;DHT22;62994;52.126;5.596;2023-02-28T07:36:56;4.10;99.90
17565;DHT22;62994;52.126;5.596;2023-02-28T07:39:36;3.90;99.90
17565;DHT22;62994;52.126;5.596;2023-02-28T07:42:07;3.90;99.90
17565;DHT22;62994;52.126;5.596;2023-02-28T07:44:39;3.80;99.90
17565;DHT22;62994;52.126;5.596;2023-02-28T07:47:11;3.90;99.90
17565;DHT22;62994;52.126;5.596;2023-02-28T07:49:44;3.80;99.90
17565;DHT22;62994;52.126;5.596;2023-02-28T07:52:16;3.80;99.90
17565;DHT22;62994;52.126;5.596;2023-02-28T07:54:43;3.90;99.90
17565;DHT22;62994;52.126;5.596;2023-02-28T07:57:16;3.80;99.90
17565;DHT22;62994;52.126;5.596;2023-02-28T07:59:49;3.80;99.90
17565;DHT22;62994;52.126;5.596;2023-02-28T08:02:19;3.90;99.90
17565;DHT22;62994;52.126;5.596;2023-02-28T08:04:52;3.80;99.90
17565;DHT22;62994;52.126;5.596;2023-02-28T08:07:19;3.90;99.90
17565;DHT22;62994;52.126;5.596;2023-02-28T08:09:48;3.90;99.90
17565;DHT22;62994;52.126;5.596;2023-02-28T08:12:18;3.90;99.90
17565;DHT22;62994;52.126;5.596;2023-02-28T08:14:47;3.90;99.90
17565;DHT22;62994;52.126;5.596;2023-02-28T08:17:26;3.90;99.90
17565;DHT22;62994;52.126;5.596;2023-02-28T08:19:58;3.90;99.90
17565;DHT22;62994;52.126;5.596;2023-02-28T08:22:26;3.90;99.90
17565;DHT22;62994;52.126;5.596;2023-02-28T08:24:57;3.90;99.90
17565;DHT22;62994;52.126;5.596;2023-02-28T08:27:24;3.90;99.90
17565;DHT22;62994;52.126;5.596;2023-02-28T08:30:02;3.80;99.90
17565;DHT22;62994;52.126;5.596;2023-02-28T08:32:35;3.90;99.90
17565;DHT22;62994;52.126;5.596;2023-02-28T08:35:09;3.90;99.90
17565;DHT22;62994;52.126;5.596;2023-02-28T08:37:41;4.00;99.90
17565;DHT22;62994;52.126;5.596;2023-02-28T08:40:15;4.00;99.90
17565;DHT22;62994;52.126;5.596;2023-02-28T08:42:50;4.10;99.90
17565;DHT22;62994;52.126;5.596;2023-02-28T08:45:25;4.10;99.90
17565;DHT22;62994;52.126;5.596;2023-02-28T08:48:02;4.20;99.90
17565;DHT22;62994;52.126;5.596;2023-02-28T08:50:29;4.20;99.90
17565;DHT22;62994;52.126;5.596;2023-02-28T08:53:01;4.30;99.90
17565;DHT22;62994;52.126;5.596;2023-02-28T08:55:32;4.40;99.90
17565;DHT22;62994;52.126;5.596;2023-02-28T08:58:05;4.50;99.90
17565;DHT22;62994;52.126;5.596;2023-02-28T09:00:33;4.60;99.90
17565;DHT22;62994;52.126;5.596;2023-02-28T09:03:03;4.60;99.90
17565;DHT22;62994;52.126;5.596;2023-02-28T09:05:38;4.50;99.90
17565;DHT22;62994;52.126;5.596;2023-02-28T09:08:06;4.60;99.90
17565;DHT22;62994;52.126;5.596;2023-02-28T09:10:34;4.70;99.90
17565;DHT22;62994;52.126;5.596;2023-02-28T09:13:06;4.80;99.90
17565;DHT22;62994;52.126;5.596;2023-02-28T09:15:39;4.80;99.90
17565;DHT22;62994;52.126;5.596;2023-02-28T09:18:15;4.80;99.90
17565;DHT22;62994;52.126;5.596;2023-02-28T09:20:45;4.80;99.90
17565;DHT22;62994;52.126;5.596;2023-02-28T09:23:15;4.80;99.90
17565;DHT22;62994;52.126;5.596;2023-02-28T09:25:46;5.00;99.90
17565;DHT22;62994;52.126;5.596;2023-02-28T09:28:27;5.00;99.90
17565;DHT22;62994;52.126;5.596;2023-02-28T09:30:55;5.10;99.90
17565;DHT22;62994;52.126;5.596;2023-02-28T09:33:26;5.10;99.90
17565;DHT22;62994;52.126;5.596;2023-02-28T09:36:00;5.20;99.90
17565;DHT22;62994;52.126;5.596;2023-02-28T09:38:31;5.20;99.90
17565;DHT22;62994;52.126;5.596;2023-02-28T09:41:00;5.40;99.90
17565;DHT22;62994;52.126;5.596;2023-02-28T09:43:34;5.30;99.90
17565;DHT22;62994;52.126;5.596;2023-02-28T09:46:18;5.50;99.90
17565;DHT22;62994;52.126;5.596;2023-02-28T09:48:50;5.50;99.90
17565;DHT22;62994;52.126;5.596;2023-02-28T09:51:40;5.60;99.90
17565;DHT22;62994;52.126;5.596;2023-02-28T09:54:18;5.70;99.90
17565;DHT22;62994;52.126;5.596;2023-02-28T09:56:51;5.70;99.90
17565;DHT22;62994;52.126;5.596;2023-02-28T09:59:42;5.70;99.90
17565;DHT22;62994;52.126;5.596;2023-02-28T10:02:29;5.80;99.90
17565;DHT22;62994;52.126;5.596;2023-02-28T10:05:11;5.90;99.90
17565;DHT22;62994;52.126;5.596;2023-02-28T10:07:57;5.90;99.90
17565;DHT22;62994;52.126;5.596;2023-02-28T10:10:29;6.00;99.90
17565;DHT22;62994;52.126;5.596;2023-02-28T10:13:00;6.00;99.90
17565;DHT22;62994;52.126;5.596;2023-02-28T10:15:31;6.00;99.90
17565;DHT22;62994;52.126;5.596;2023-02-28T10:18:11;6.10;99.90
17565;DHT22;62994;52.126;5.596;2023-02-28T10:20:44;6.20;99.90
17565;DHT22;62994;52.126;5.596;2023-02-28T10:23:16;6.20;99.90
17565;DHT22;62994;52.126;5.596;2023-02-28T10:25:50;6.30;99.90
17565;DHT22;62994;52.126;5.596;2023-02-28T10:28:24;6.40;99.90
17565;DHT22;62994;52.126;5.596;2023-02-28T10:30:53;6.50;99.90
17565;DHT22;62994;52.126;5.596;2023-02-28T10:33:25;6.60;99.90
17565;DHT22;62994;52.126;5.596;2023-02-28T10:35:56;6.60;99.90
17565;DHT22;62994;52.126;5.596;2023-02-28T10:38:27;6.70;99.90
17565;DHT22;62994;52.126;5.596;2023-02-28T10:41:10;6.80;99.90
17565;DHT22;62994;52.126;5.596;2023-02-28T10:43:44;6.70;99.90
17565;DHT22;62994;52.126;5.596;2023-02-28T10:46:16;6.70;99.90
17565;DHT22;62994;52.126;5.596;2023-02-28T10:49:02;6.80;99.90
17565;DHT22;62994;52.126;5.596;2023-02-28T10:51:37;6.80;99.90
17565;DHT22;62994;52.126;5.596;2023-02-28T10:54:10;6.90;99.90
17565;DHT22;62994;52.126;5.596;2023-02-28T10:57:16;7.00;99.90
17565;DHT22;62994;52.126;5.596;2023-02-28T10:59:43;7.10;99.90
17565;DHT22;62994;52.126;5.596;2023-02-28T11:02:33;7.30;99.90
17565;DHT22;62994;52.126;5.596;2023-02-28T11:07:53;7.50;99.90
17565;DHT22;62994;52.126;5.596;2023-02-28T11:10:25;7.50;99.90
17565;DHT22;62994;52.126;5.596;2023-02-28T11:12:57;7.60;99.90
17565;DHT22;62994;52.126;5.596;2023-02-28T11:15:29;7.70;99.90
17565;DHT22;62994;52.126;5.596;2023-02-28T11:17:59;7.70;99.90
17565;DHT22;62994;52.126;5.596;2023-02-28T11:20:33;7.80;99.90
17565;DHT22;62994;52.126;5.596;2023-02-28T11:23:11;7.90;99.90
17565;DHT22;62994;52.126;5.596;2023-02-28T11:25:48;7.80;99.90
17565;DHT22;62994;52.126;5.596;2023-02-28T11:28:29;7.80;99.90
17565;DHT22;62994;52.126;5.596;2023-02-28T11:31:04;7.80;99.90
17565;DHT22;62994;52.126;5.596;2023-02-28T11:33:40;7.80;99.90
17565;DHT22;62994;52.126;5.596;2023-02-28T11:36:12;7.90;99.90
17565;DHT22;62994;52.126;5.596;2023-02-28T11:38:44;7.90;99.90
17565;DHT22;62994;52.126;5.596;2023-02-28T11:41:36;8.00;99.90
17565;DHT22;62994;52.126;5.596;2023-02-28T11:44:29;8.10;99.90
17565;DHT22;62994;52.126;5.596;2023-02-28T11:47:07;8.00;99.90
17565;DHT22;62994;52.126;5.596;2023-02-28T11:49:47;8.00;99.90
17565;DHT22;62994;52.126;5.596;2023-02-28T11:52:39;8.00;99.90
17565;DHT22;62994;52.126;5.596;2023-02-28T11:55:23;7.90;99.90
17565;DHT22;62994;52.126;5.596;2023-02-28T11:58:30;7.90;99.90
17565;DHT22;62994;52.126;5.596;2023-02-28T12:01:13;7.90;99.90
17565;DHT22;62994;52.126;5.596;2023-02-28T12:03:49;8.10;99.90
17565;DHT22;62994;52.126;5.596;2023-02-28T12:06:28;8.20;99.90
17565;DHT22;62994;52.126;5.596;2023-02-28T12:12:12;8.40;99.90
17565;DHT22;62994;52.126;5.596;2023-02-28T12:14:53;8.40;99.90
17565;DHT22;62994;52.126;5.596;2023-02-28T12:17:32;8.40;99.90
17565;DHT22;62994;52.126;5.596;2023-02-28T12:20:08;8.40;99.90
17565;DHT22;62994;52.126;5.596;2023-02-28T12:22:48;8.40;99.90
17565;DHT22;62994;52.126;5.596;2023-02-28T12:25:39;8.30;99.90
17565;DHT22;62994;52.126;5.596;2023-02-28T12:28:14;8.40;99.90
17565;DHT22;62994;52.126;5.596;2023-02-28T12:30:49;8.50;99.90
17565;DHT22;62994;52.126;5.596;2023-02-28T12:33:22;8.60;99.90
17565;DHT22;62994;52.126;5.596;2023-02-28T12:35:54;8.50;99.90
17565;DHT22;62994;52.126;5.596;2023-02-28T12:38:25;8.70;99.90
17565;DHT22;62994;52.126;5.596;2023-02-28T12:40:56;8.70;99.90
17565;DHT22;62994;52.126;5.596;2023-02-28T12:43:30;8.80;99.90
17565;DHT22;62994;52.126;5.596;2023-02-28T12:46:02;8.80;99.90
17565;DHT22;62994;52.126;5.596;2023-02-28T12:48:33;8.90;99.90
17565;DHT22;62994;52.126;5.596;2023-02-28T12:51:05;9.00;99.90
17565;DHT22;62994;52.126;5.596;2023-02-28T12:53:50;9.10;99.90
17565;DHT22;62994;52.126;5.596;2023-02-28T12:56:22;9.00;99.90
17565;DHT22;62994;52.126;5.596;2023-02-28T12:58:58;9.20;99.90
17565;DHT22;62994;52.126;5.596;2023-02-28T13:01:52;9.30;99.90
17565;DHT22;62994;52.126;5.596;2023-02-28T13:04:42;9.40;99.90
17565;DHT22;62994;52.126;5.596;2023-02-28T13:10:18;9.40;99.90
17565;DHT22;62994;52.126;5.596;2023-02-28T13:12:49;9.40;99.90
17565;DHT22;62994;52.126;5.596;2023-02-28T13:15:21;9.50;99.90
17565;DHT22;62994;52.126;5.596;2023-02-28T13:17:51;9.60;99.90
17565;DHT22;62994;52.126;5.596;2023-02-28T13:20:20;9.70;99.90
17565;DHT22;62994;52.126;5.596;2023-02-28T13:22:48;9.90;99.90
17565;DHT22;62994;52.126;5.596;2023-02-28T13:25:54;9.90;99.90
17565;DHT22;62994;52.126;5.596;2023-02-28T13:34:39;10.10;99.90
17565;DHT22;62994;52.126;5.596;2023-02-28T13:37:35;10.00;99.90
17565;DHT22;62994;52.126;5.596;2023-02-28T13:40:31;10.10;99.90
17565;DHT22;62994;52.126;5.596;2023-02-28T13:43:06;10.20;99.90
17565;DHT22;62994;52.126;5.596;2023-02-28T13:45:34;10.20;99.90
17565;DHT22;62994;52.126;5.596;2023-02-28T13:48:12;10.20;99.90
17565;DHT22;62994;52.126;5.596;2023-02-28T13:50:43;10.30;99.90
17565;DHT22;62994;52.126;5.596;2023-02-28T13:53:33;10.30;99.90
17565;DHT22;62994;52.126;5.596;2023-02-28T13:56:08;10.20;99.90
17565;DHT22;62994;52.126;5.596;2023-02-28T13:58:48;10.30;99.90
17565;DHT22;62994;52.126;5.596;2023-02-28T14:01:31;10.20;99.90
17565;DHT22;62994;52.126;5.596;2023-02-28T14:04:40;10.40;99.90
17565;DHT22;62994;52.126;5.596;2023-02-28T14:07:11;10.40;99.90
17565;DHT22;62994;52.126;5.596;2023-02-28T14:09:48;10.40;99.90
17565;DHT22;62994;52.126;5.596;2023-02-28T14:15:54;10.50;99.90
17565;DHT22;62994;52.126;5.596;2023-02-28T14:18:29;10.50;99.90
17565;DHT22;62994;52.126;5.596;2023-02-28T14:21:01;10.60;99.90
17565;DHT22;62994;52.126;5.596;2023-02-28T14:30:04;10.50;99.90
17565;DHT22;62994;52.126;5.596;2023-02-28T14:32:46;10.50;99.90
17565;DHT22;62994;52.126;5.596;2023-02-28T14:35:22;10.40;99.90
17565;DHT22;62994;52.126;5.596;2023-02-28T14:37:54;10.40;99.90
17565;DHT22;62994;52.126;5.596;2023-02-28T14:40:27;10.30;99.90
17565;DHT22;62994;52.126;5.596;2023-02-28T14:42:56;10.30;99.90
17565;DHT22;62994;52.126;5.596;2023-02-28T14:45:28;10.10;99.90
17565;DHT22;62994;52.126;5.596;2023-02-28T14:47:57;9.90;99.90
17565;DHT22;62994;52.126;5.596;2023-02-28T14:50:27;9.80;99.90
17565;DHT22;62994;52.126;5.596;2023-02-28T14:52:56;9.40;99.90
17565;DHT22;62994;52.126;5.596;2023-02-28T14:55:27;9.30;99.90
17565;DHT22;62994;52.126;5.596;2023-02-28T14:57:57;9.30;99.90
17565;DHT22;62994;52.126;5.596;2023-02-28T15:00:25;9.20;99.90
17565;DHT22;62994;52.126;5.596;2023-02-28T15:02:53;9.10;99.90
17565;DHT22;62994;52.126;5.596;2023-02-28T15:05:28;9.10;99.90
17565;DHT22;62994;52.126;5.596;2023-02-28T15:08:05;9.00;99.90
17565;DHT22;62994;52.126;5.596;2023-02-28T15:10:34;9.00;99.90
17565;DHT22;62994;52.126;5.596;2023-02-28T15:13:05;8.90;99.90
17565;DHT22;62994;52.126;5.596;2023-02-28T15:15:41;9.00;99.90
17565;DHT22;62994;52.126;5.596;2023-02-28T15:18:16;9.00;99.90
17565;DHT22;62994;52.126;5.596;2023-02-28T15:20:45;8.90;99.90
17565;DHT22;62994;52.126;5.596;2023-02-28T15:23:15;8.80;99.90
17565;DHT22;62994;52.126;5.596;2023-02-28T15:25:43;8.80;99.90
17565;DHT22;62994;52.126;5.596;2023-02-28T15:28:15;8.60;99.90
17565;DHT22;62994;52.126;5.596;2023-02-28T15:30:55;8.60;99.90
17565;DHT22;62994;52.126;5.596;2023-02-28T15:33:24;8.60;99.90
17565;DHT22;62994;52.126;5.596;2023-02-28T15:35:51;8.50;99.90
17565;DHT22;62994;52.126;5.596;2023-02-28T15:38:22;8.50;99.90
17565;DHT22;62994;52.126;5.596;2023-02-28T15:40:53;8.40;99.90
17565;DHT22;62994;52.126;5.596;2023-02-28T15:43:26;8.40;99.90
17565;DHT22;62994;52.126;5.596;2023-02-28T15:45:56;8.40;99.90
17565;DHT22;62994;52.126;5.596;2023-02-28T15:48:26;8.40;99.90
17565;DHT22;62994;52.126;5.596;2023-02-28T15:50:56;8.30;99.90
17565;DHT22;62994;52.126;5.596;2023-02-28T15:53:29;8.30;99.90
17565;DHT22;62994;52.126;5.596;2023-02-28T15:56:01;8.10;99.90
17565;DHT22;62994;52.126;5.596;2023-02-28T15:58:29;8.00;99.90
17565;DHT22;62994;52.126;5.596;2023-02-28T16:01:08;8.00;99.90
17565;DHT22;62994;52.126;5.596;2023-02-28T16:03:44;8.00;99.90
17565;DHT22;62994;52.126;5.596;2023-02-28T16:06:33;7.90;99.90
17565;DHT22;62994;52.126;5.596;2023-02-28T16:09:01;7.90;99.90
17565;DHT22;62994;52.126;5.596;2023-02-28T16:11:36;7.90;99.90
17565;DHT22;62994;52.126;5.596;2023-02-28T16:14:04;7.90;99.90
17565;DHT22;62994;52.126;5.596;2023-02-28T16:16:32;7.80;99.90
17565;DHT22;62994;52.126;5.596;2023-02-28T16:19:00;7.90;99.90
17565;DHT22;62994;52.126;5.596;2023-02-28T16:21:27;7.70;99.90
17565;DHT22;62994;52.126;5.596;2023-02-28T16:23:54;7.70;99.90
17565;DHT22;62994;52.126;5.596;2023-02-28T16:26:24;7.60;99.90
17565;DHT22;62994;52.126;5.596;2023-02-28T16:28:54;7.60;99.90
17565;DHT22;62994;52.126;5.596;2023-02-28T16:31:21;7.70;99.90
17565;DHT22;62994;52.126;5.596;2023-02-28T16:33:48;7.70;99.90
17565;DHT22;62994;52.126;5.596;2023-02-28T16:36:18;7.70;99.90
17565;DHT22;62994;52.126;5.596;2023-02-28T16:38:45;7.70;99.90
17565;DHT22;62994;52.126;5.596;2023-02-28T16:41:14;7.80;99.90
17565;DHT22;62994;52.126;5.596;2023-02-28T16:43:48;7.80;99.90
17565;DHT22;62994;52.126;5.596;2023-02-28T16:46:17;7.80;99.90
17565;DHT22;62994;52.126;5.596;2023-02-28T16:48:44;7.70;99.90
17565;DHT22;62994;52.126;5.596;2023-02-28T16:51:13;7.80;99.90
17565;DHT22;62994;52.126;5.596;2023-02-28T16:53:46;7.80;99.90
17565;DHT22;62994;52.126;5.596;2023-02-28T16:56:18;7.80;99.90
17565;DHT22;62994;52.126;5.596;2023-02-28T16:58:46;7.80;99.90